Fly Mediterranean

Fly Mediterranean VA! Vive la experiencia Fly Mediterranean



 INFORMACIÓN METAR y TAF
METAR FOR LFML
ADDS - METARS form results

(2121 UTC 15 August 2022)
Data provider http://aviationweather.gov/metar/data/
 
METAR text: LFML 152100Z AUTO 30008KT CAVOK 26/20 Q1007 NOSIG
Conditions at: LFML (MARSEILLE/MARIGN, FR) observed 2100 UTC 15 August 2022
Temperature: 26.0°C (79°F)
Dewpoint: 20.0°C (68°F) [RH = 70%]
Pressure (altimeter): 29.73 inches Hg (1007.0 mb)
Winds: from the WNW (300 degrees) at 9 MPH (8 knots; 4.1 m/s)
Visibility: 6 or more miles (10+ km)
Ceiling: ceiling and visibility are OK
Clouds: unknown
Weather: no significant weather observed at this time

METAR text: LFML 152030Z AUTO 29009KT CAVOK 26/20 Q1007 NOSIG
Conditions at: LFML (MARSEILLE/MARIGN, FR) observed 2030 UTC 15 August 2022
Temperature: 26.0°C (79°F)
Dewpoint: 20.0°C (68°F) [RH = 70%]
Pressure (altimeter): 29.73 inches Hg (1007.0 mb)
Winds: from the WNW (290 degrees) at 10 MPH (9 knots; 4.6 m/s)
Visibility: 6 or more miles (10+ km)
Ceiling: ceiling and visibility are OK
Clouds: unknown
Weather: no significant weather observed at this time

Forecast for: LFML (MARSEILLE/MARIGN, FR)
Text: TAF LFML 152000Z 1521/1703 28004KT CAVOK TX33/1611Z TN22/1605Z
Forecast period: 2100 UTC 15 August 2022 to 0800 UTC 16 August 2022
Forecast type: FROM: standard forecast or significant change
Winds: from the W (280 degrees) at 5 MPH (4 knots; 2.1 m/s)
Visibility: 6 or more miles (10+ km)
Ceiling: unknown
Clouds: missing
Weather: no significant weather forecast for this period
Text: BECMG 1608/1610 17010KT
Forecast period: 0800 UTC 16 August 2022 to 0300 UTC 17 August 2022
Forecast type: BECOMING: Conditions expected to become as follows by 1000 UTC 16 August 2022
Winds: from the S (170 degrees) at 12 MPH (10 knots; 5.1 m/s)
Visibility: 6 or more miles (10+ km)
Ceiling: unknown
Clouds: missing
Weather: no significant weather forecast for this period
Text: TEMPO 1621/1703 13015G25KT 4000 TSRA SCT030CB
Forecast period: 2100 UTC 16 August 2022 to 0300 UTC 17 August 2022
Forecast type: TEMPORARY: The following changes expected for less than half the time period
Winds: from the SE (130 degrees) at 17 MPH (15 knots; 7.7 m/s)
gusting to 29 MPH (25 knots; 12.9 m/s)
Visibility: 2.49 miles (4.01 km)
Ceiling: at least 12,000 feet AGL
Clouds: scattered clouds at 3000 feet AGL
Weather: TSRA  (rain associated with thunderstorm(s))

 MAPA DE AEROPUERTO

 INFORMACIÓN DE PISTA

Fatal error: Uncaught Error: Call to a member function fetch_assoc() on bool in /homepages/25/d824001064/htdocs/vam/airport_info.php:63 Stack trace: #0 /homepages/25/d824001064/htdocs/vam/main_index.php(590): include() #1 /homepages/25/d824001064/htdocs/vam/index.php(42): include('/homepages/25/d...') #2 {main} thrown in /homepages/25/d824001064/htdocs/vam/airport_info.php on line 63